sensor_id;sensor_type;location;lat;lon;timestamp;temperature;humidity
3055;DHT22;1537;52.018;8.542;2023-06-10T00:01:59;19.60;91.80
3055;DHT22;1537;52.018;8.542;2023-06-10T00:05:23;19.60;92.10
3055;DHT22;1537;52.018;8.542;2023-06-10T00:08:48;19.60;92.10
3055;DHT22;1537;52.018;8.542;2023-06-10T00:12:12;19.60;92.10
3055;DHT22;1537;52.018;8.542;2023-06-10T00:15:37;19.50;92.30
3055;DHT22;1537;52.018;8.542;2023-06-10T00:19:03;19.50;92.30
3055;DHT22;1537;52.018;8.542;2023-06-10T00:22:30;19.50;92.50
3055;DHT22;1537;52.018;8.542;2023-06-10T00:25:55;19.40;92.60
3055;DHT22;1537;52.018;8.542;2023-06-10T00:29:19;19.30;92.80
3055;DHT22;1537;52.018;8.542;2023-06-10T00:32:44;19.20;93.10
3055;DHT22;1537;52.018;8.542;2023-06-10T00:36:10;19.10;93.50
3055;DHT22;1537;52.018;8.542;2023-06-10T00:39:35;19.10;93.70
3055;DHT22;1537;52.018;8.542;2023-06-10T00:43:00;19.10;93.90
3055;DHT22;1537;52.018;8.542;2023-06-10T00:46:25;19.00;93.90
3055;DHT22;1537;52.018;8.542;2023-06-10T00:49:51;19.00;94.00
3055;DHT22;1537;52.018;8.542;2023-06-10T00:53:16;18.90;93.90
3055;DHT22;1537;52.018;8.542;2023-06-10T00:56:43;18.80;94.00
3055;DHT22;1537;52.018;8.542;2023-06-10T01:00:09;18.60;94.00
3055;DHT22;1537;52.018;8.542;2023-06-10T01:03:33;18.50;94.30
3055;DHT22;1537;52.018;8.542;2023-06-10T01:07:05;18.50;94.50
3055;DHT22;1537;52.018;8.542;2023-06-10T01:10:41;18.40;95.00
3055;DHT22;1537;52.018;8.542;2023-06-10T01:14:07;18.30;94.60
3055;DHT22;1537;52.018;8.542;2023-06-10T01:17:32;18.30;94.60
3055;DHT22;1537;52.018;8.542;2023-06-10T01:20:57;18.30;94.70
3055;DHT22;1537;52.018;8.542;2023-06-10T01:24:23;18.20;94.80
3055;DHT22;1537;52.018;8.542;2023-06-10T01:27:50;18.30;95.00
3055;DHT22;1537;52.018;8.542;2023-06-10T01:31:17;18.20;95.00
3055;DHT22;1537;52.018;8.542;2023-06-10T01:34:48;18.20;95.30
3055;DHT22;1537;52.018;8.542;2023-06-10T01:38:12;18.20;95.50
3055;DHT22;1537;52.018;8.542;2023-06-10T01:41:40;18.20;95.70
3055;DHT22;1537;52.018;8.542;2023-06-10T01:45:06;18.30;95.80
3055;DHT22;1537;52.018;8.542;2023-06-10T01:48:31;18.20;96.10
3055;DHT22;1537;52.018;8.542;2023-06-10T01:51:55;18.10;96.20
3055;DHT22;1537;52.018;8.542;2023-06-10T01:55:21;18.00;96.40
3055;DHT22;1537;52.018;8.542;2023-06-10T01:58:47;17.90;96.80
3055;DHT22;1537;52.018;8.542;2023-06-10T02:02:12;17.90;97.30
3055;DHT22;1537;52.018;8.542;2023-06-10T02:05:36;17.80;97.50
3055;DHT22;1537;52.018;8.542;2023-06-10T02:09:00;17.80;97.80
3055;DHT22;1537;52.018;8.542;2023-06-10T02:12:25;17.80;97.90
3055;DHT22;1537;52.018;8.542;2023-06-10T02:15:50;17.70;98.10
3055;DHT22;1537;52.018;8.542;2023-06-10T02:19:16;17.70;98.30
3055;DHT22;1537;52.018;8.542;2023-06-10T02:22:43;17.60;97.90
3055;DHT22;1537;52.018;8.542;2023-06-10T02:26:07;17.50;98.30
3055;DHT22;1537;52.018;8.542;2023-06-10T02:29:31;17.50;98.30
3055;DHT22;1537;52.018;8.542;2023-06-10T02:32:58;17.50;98.60
3055;DHT22;1537;52.018;8.542;2023-06-10T02:36:22;17.50;98.70
3055;DHT22;1537;52.018;8.542;2023-06-10T02:39:46;17.50;99.00
3055;DHT22;1537;52.018;8.542;2023-06-10T02:43:10;17.50;99.00
3055;DHT22;1537;52.018;8.542;2023-06-10T02:46:34;17.30;99.20
3055;DHT22;1537;52.018;8.542;2023-06-10T02:50:02;17.30;99.20
3055;DHT22;1537;52.018;8.542;2023-06-10T02:53:32;17.30;99.60
3055;DHT22;1537;52.018;8.542;2023-06-10T02:57:03;17.20;99.80
3055;DHT22;1537;52.018;8.542;2023-06-10T03:00:31;17.20;99.90
3055;DHT22;1537;52.018;8.542;2023-06-10T03:03:59;17.10;99.70
3055;DHT22;1537;52.018;8.542;2023-06-10T03:07:24;17.10;99.90
3055;DHT22;1537;52.018;8.542;2023-06-10T03:10:49;16.90;99.90
3055;DHT22;1537;52.018;8.542;2023-06-10T03:14:15;16.90;99.90
3055;DHT22;1537;52.018;8.542;2023-06-10T03:17:39;17.00;99.90
3055;DHT22;1537;52.018;8.542;2023-06-10T03:21:05;16.90;99.90
3055;DHT22;1537;52.018;8.542;2023-06-10T03:24:35;16.90;99.90
3055;DHT22;1537;52.018;8.542;2023-06-10T03:28:04;16.90;99.90
3055;DHT22;1537;52.018;8.542;2023-06-10T03:31:30;16.90;99.90
3055;DHT22;1537;52.018;8.542;2023-06-10T03:34:55;16.90;99.90
3055;DHT22;1537;52.018;8.542;2023-06-10T03:38:23;16.90;99.90
3055;DHT22;1537;52.018;8.542;2023-06-10T03:41:51;16.90;99.90
3055;DHT22;1537;52.018;8.542;2023-06-10T03:45:15;16.90;99.90
3055;DHT22;1537;52.018;8.542;2023-06-10T03:48:40;16.90;99.90
3055;DHT22;1537;52.018;8.542;2023-06-10T03:52:06;17.00;99.90
3055;DHT22;1537;52.018;8.542;2023-06-10T03:55:30;16.90;99.90
3055;DHT22;1537;52.018;8.542;2023-06-10T03:58:58;16.90;99.90
3055;DHT22;1537;52.018;8.542;2023-06-10T04:02:22;16.90;99.90
3055;DHT22;1537;52.018;8.542;2023-06-10T04:05:47;16.90;99.90
3055;DHT22;1537;52.018;8.542;2023-06-10T04:09:13;17.00;99.90
3055;DHT22;1537;52.018;8.542;2023-06-10T04:12:39;17.00;99.90
3055;DHT22;1537;52.018;8.542;2023-06-10T04:16:05;17.00;99.90
3055;DHT22;1537;52.018;8.542;2023-06-10T04:19:29;17.00;99.90
3055;DHT22;1537;52.018;8.542;2023-06-10T04:22:54;17.00;99.90
3055;DHT22;1537;52.018;8.542;2023-06-10T04:26:18;17.00;99.90
3055;DHT22;1537;52.018;8.542;2023-06-10T04:29:43;17.00;99.90
3055;DHT22;1537;52.018;8.542;2023-06-10T04:33:09;17.00;99.90
3055;DHT22;1537;52.018;8.542;2023-06-10T04:36:34;17.00;99.90
3055;DHT22;1537;52.018;8.542;2023-06-10T04:39:59;16.90;99.90
3055;DHT22;1537;52.018;8.542;2023-06-10T04:43:25;16.80;99.90
3055;DHT22;1537;52.018;8.542;2023-06-10T04:46:52;16.70;99.90
3055;DHT22;1537;52.018;8.542;2023-06-10T04:50:20;16.80;99.90
3055;DHT22;1537;52.018;8.542;2023-06-10T04:53:44;16.90;99.90
3055;DHT22;1537;52.018;8.542;2023-06-10T04:57:08;17.10;99.90
3055;DHT22;1537;52.018;8.542;2023-06-10T05:00:34;17.20;99.90
3055;DHT22;1537;52.018;8.542;2023-06-10T05:03:58;17.50;99.90
3055;DHT22;1537;52.018;8.542;2023-06-10T05:07:24;17.60;99.90
3055;DHT22;1537;52.018;8.542;2023-06-10T05:10:48;18.10;99.40
3055;DHT22;1537;52.018;8.542;2023-06-10T05:14:12;19.00;98.10
3055;DHT22;1537;52.018;8.542;2023-06-10T05:17:39;19.80;96.50
3055;DHT22;1537;52.018;8.542;2023-06-10T05:21:03;20.60;95.20
3055;DHT22;1537;52.018;8.542;2023-06-10T05:24:30;21.40;93.60
3055;DHT22;1537;52.018;8.542;2023-06-10T05:27:53;22.20;92.50
3055;DHT22;1537;52.018;8.542;2023-06-10T05:31:17;22.50;90.90
3055;DHT22;1537;52.018;8.542;2023-06-10T05:34:45;22.60;90.30
3055;DHT22;1537;52.018;8.542;2023-06-10T05:38:12;22.60;89.60
3055;DHT22;1537;52.018;8.542;2023-06-10T05:41:38;23.00;89.00
3055;DHT22;1537;52.018;8.542;2023-06-10T05:45:03;23.30;88.30
3055;DHT22;1537;52.018;8.542;2023-06-10T05:48:31;23.50;86.60
3055;DHT22;1537;52.018;8.542;2023-06-10T05:51:55;22.90;87.30
3055;DHT22;1537;52.018;8.542;2023-06-10T05:55:21;23.40;86.60
3055;DHT22;1537;52.018;8.542;2023-06-10T05:58:47;24.30;84.80
3055;DHT22;1537;52.018;8.542;2023-06-10T06:02:11;25.00;81.80
3055;DHT22;1537;52.018;8.542;2023-06-10T06:05:36;25.40;79.60
3055;DHT22;1537;52.018;8.542;2023-06-10T06:09:02;25.40;78.90
3055;DHT22;1537;52.018;8.542;2023-06-10T06:12:28;25.80;77.30
3055;DHT22;1537;52.018;8.542;2023-06-10T06:15:56;26.00;76.00
3055;DHT22;1537;52.018;8.542;2023-06-10T06:19:25;26.40;74.70
3055;DHT22;1537;52.018;8.542;2023-06-10T06:22:49;26.20;75.30
3055;DHT22;1537;52.018;8.542;2023-06-10T06:26:14;26.10;75.20
3055;DHT22;1537;52.018;8.542;2023-06-10T06:29:38;26.60;74.50
3055;DHT22;1537;52.018;8.542;2023-06-10T06:33:05;26.70;73.40
3055;DHT22;1537;52.018;8.542;2023-06-10T06:36:29;26.70;73.20
3055;DHT22;1537;52.018;8.542;2023-06-10T06:39:54;26.50;73.00
3055;DHT22;1537;52.018;8.542;2023-06-10T06:43:21;26.60;72.70
3055;DHT22;1537;52.018;8.542;2023-06-10T06:47:14;26.80;72.00
3055;DHT22;1537;52.018;8.542;2023-06-10T06:50:51;26.40;72.40
3055;DHT22;1537;52.018;8.542;2023-06-10T06:54:18;26.40;71.80
3055;DHT22;1537;52.018;8.542;2023-06-10T06:57:43;26.40;71.60
3055;DHT22;1537;52.018;8.542;2023-06-10T07:01:08;26.30;71.30
3055;DHT22;1537;52.018;8.542;2023-06-10T07:04:32;26.50;69.20
3055;DHT22;1537;52.018;8.542;2023-06-10T07:08:03;26.70;69.10
3055;DHT22;1537;52.018;8.542;2023-06-10T07:11:27;27.20;68.50
3055;DHT22;1537;52.018;8.542;2023-06-10T07:14:51;28.30;65.60
3055;DHT22;1537;52.018;8.542;2023-06-10T07:18:17;29.00;62.90
3055;DHT22;1537;52.018;8.542;2023-06-10T07:21:44;28.50;63.80
3055;DHT22;1537;52.018;8.542;2023-06-10T07:25:10;28.20;65.00
3055;DHT22;1537;52.018;8.542;2023-06-10T07:28:34;27.80;65.40
3055;DHT22;1537;52.018;8.542;2023-06-10T07:32:02;28.10;64.90
3055;DHT22;1537;52.018;8.542;2023-06-10T07:35:29;28.80;64.10
3055;DHT22;1537;52.018;8.542;2023-06-10T07:38:54;28.60;65.30
3055;DHT22;1537;52.018;8.542;2023-06-10T07:42:19;28.50;64.30
3055;DHT22;1537;52.018;8.542;2023-06-10T07:45:43;28.70;64.90
3055;DHT22;1537;52.018;8.542;2023-06-10T07:49:07;28.90;64.30
3055;DHT22;1537;52.018;8.542;2023-06-10T07:52:31;30.10;61.40
3055;DHT22;1537;52.018;8.542;2023-06-10T07:55:55;29.70;61.70
3055;DHT22;1537;52.018;8.542;2023-06-10T07:59:20;29.60;61.20
3055;DHT22;1537;52.018;8.542;2023-06-10T08:02:44;29.50;61.10
3055;DHT22;1537;52.018;8.542;2023-06-10T08:06:07;30.20;59.90
3055;DHT22;1537;52.018;8.542;2023-06-10T08:09:33;29.90;60.00
3055;DHT22;1537;52.018;8.542;2023-06-10T08:12:57;29.90;59.70
3055;DHT22;1537;52.018;8.542;2023-06-10T08:16:22;29.30;61.20
3055;DHT22;1537;52.018;8.542;2023-06-10T08:19:46;30.00;59.10
3055;DHT22;1537;52.018;8.542;2023-06-10T08:23:09;29.80;58.20
3055;DHT22;1537;52.018;8.542;2023-06-10T08:26:33;29.80;58.40
3055;DHT22;1537;52.018;8.542;2023-06-10T08:29:57;30.80;58.00
3055;DHT22;1537;52.018;8.542;2023-06-10T08:33:24;30.50;57.90
3055;DHT22;1537;52.018;8.542;2023-06-10T08:36:48;30.80;57.50
3055;DHT22;1537;52.018;8.542;2023-06-10T08:40:15;31.50;57.10
3055;DHT22;1537;52.018;8.542;2023-06-10T08:43:44;32.70;55.50
3055;DHT22;1537;52.018;8.542;2023-06-10T08:47:14;33.60;53.70
3055;DHT22;1537;52.018;8.542;2023-06-10T08:50:39;33.00;53.50
3055;DHT22;1537;52.018;8.542;2023-06-10T08:54:09;32.30;54.40
3055;DHT22;1537;52.018;8.542;2023-06-10T08:57:35;31.40;55.70
3055;DHT22;1537;52.018;8.542;2023-06-10T09:00:59;32.00;55.20
3055;DHT22;1537;52.018;8.542;2023-06-10T09:04:24;32.90;53.50
3055;DHT22;1537;52.018;8.542;2023-06-10T09:07:51;32.80;53.50
3055;DHT22;1537;52.018;8.542;2023-06-10T09:11:16;33.50;51.90
3055;DHT22;1537;52.018;8.542;2023-06-10T09:14:39;34.60;50.20
3055;DHT22;1537;52.018;8.542;2023-06-10T09:18:03;33.90;49.10
3055;DHT22;1537;52.018;8.542;2023-06-10T09:21:28;34.10;49.40
3055;DHT22;1537;52.018;8.542;2023-06-10T09:25:02;34.30;48.30
3055;DHT22;1537;52.018;8.542;2023-06-10T09:28:26;34.00;47.90
3055;DHT22;1537;52.018;8.542;2023-06-10T09:31:49;34.00;48.50
3055;DHT22;1537;52.018;8.542;2023-06-10T09:35:13;33.10;47.70
3055;DHT22;1537;52.018;8.542;2023-06-10T09:38:37;32.70;47.80
3055;DHT22;1537;52.018;8.542;2023-06-10T09:42:15;33.30;47.90
3055;DHT22;1537;52.018;8.542;2023-06-10T09:45:43;33.40;48.20
3055;DHT22;1537;52.018;8.542;2023-06-10T09:49:07;33.40;47.90
3055;DHT22;1537;52.018;8.542;2023-06-10T09:52:31;33.10;47.40
3055;DHT22;1537;52.018;8.542;2023-06-10T09:55:55;34.20;48.00
3055;DHT22;1537;52.018;8.542;2023-06-10T09:59:29;33.20;49.20
3055;DHT22;1537;52.018;8.542;2023-06-10T10:02:54;34.00;47.40
3055;DHT22;1537;52.018;8.542;2023-06-10T10:06:20;33.40;47.80
3055;DHT22;1537;52.018;8.542;2023-06-10T10:09:44;33.60;46.50
3055;DHT22;1537;52.018;8.542;2023-06-10T10:13:08;33.80;46.60
3055;DHT22;1537;52.018;8.542;2023-06-10T10:16:37;34.30;45.80
3055;DHT22;1537;52.018;8.542;2023-06-10T10:20:05;33.20;47.00
3055;DHT22;1537;52.018;8.542;2023-06-10T10:23:36;33.20;46.20
3055;DHT22;1537;52.018;8.542;2023-06-10T10:27:04;33.30;46.30
3055;DHT22;1537;52.018;8.542;2023-06-10T10:30:34;32.80;45.30
3055;DHT22;1537;52.018;8.542;2023-06-10T10:34:06;33.50;44.20
3055;DHT22;1537;52.018;8.542;2023-06-10T10:37:30;33.40;44.80
3055;DHT22;1537;52.018;8.542;2023-06-10T10:40:55;32.50;47.00
3055;DHT22;1537;52.018;8.542;2023-06-10T10:44:22;32.90;47.20
3055;DHT22;1537;52.018;8.542;2023-06-10T10:47:46;32.60;47.00
3055;DHT22;1537;52.018;8.542;2023-06-10T10:51:16;30.90;48.00
3055;DHT22;1537;52.018;8.542;2023-06-10T10:54:44;31.30;48.90
3055;DHT22;1537;52.018;8.542;2023-06-10T10:58:13;31.80;47.10
3055;DHT22;1537;52.018;8.542;2023-06-10T11:01:42;31.00;47.40
3055;DHT22;1537;52.018;8.542;2023-06-10T11:05:10;30.70;47.90
3055;DHT22;1537;52.018;8.542;2023-06-10T11:08:47;30.30;47.90
3055;DHT22;1537;52.018;8.542;2023-06-10T11:12:11;29.60;45.90
3055;DHT22;1537;52.018;8.542;2023-06-10T11:15:39;29.30;47.20
3055;DHT22;1537;52.018;8.542;2023-06-10T11:19:06;28.80;47.50
3055;DHT22;1537;52.018;8.542;2023-06-10T11:22:30;28.50;48.50
3055;DHT22;1537;52.018;8.542;2023-06-10T11:26:19;28.50;49.60
3055;DHT22;1537;52.018;8.542;2023-06-10T11:29:58;28.50;51.40
3055;DHT22;1537;52.018;8.542;2023-06-10T11:33:22;28.40;52.10
3055;DHT22;1537;52.018;8.542;2023-06-10T11:36:47;27.90;52.20
3055;DHT22;1537;52.018;8.542;2023-06-10T11:40:12;27.80;52.30
3055;DHT22;1537;52.018;8.542;2023-06-10T11:43:37;27.60;52.90
3055;DHT22;1537;52.018;8.542;2023-06-10T11:47:04;27.40;54.40
3055;DHT22;1537;52.018;8.542;2023-06-10T11:50:30;27.50;54.70
3055;DHT22;1537;52.018;8.542;2023-06-10T11:53:54;27.60;55.20
3055;DHT22;1537;52.018;8.542;2023-06-10T11:57:18;27.60;55.60
3055;DHT22;1537;52.018;8.542;2023-06-10T12:00:51;27.70;55.30
3055;DHT22;1537;52.018;8.542;2023-06-10T12:04:16;27.80;55.70
3055;DHT22;1537;52.018;8.542;2023-06-10T12:07:41;27.60;55.50
3055;DHT22;1537;52.018;8.542;2023-06-10T12:11:05;27.60;55.20
3055;DHT22;1537;52.018;8.542;2023-06-10T12:14:52;27.30;57.30
3055;DHT22;1537;52.018;8.542;2023-06-10T12:18:23;27.40;56.60
3055;DHT22;1537;52.018;8.542;2023-06-10T12:21:46;27.50;56.20
3055;DHT22;1537;52.018;8.542;2023-06-10T12:25:11;27.60;57.70
3055;DHT22;1537;52.018;8.542;2023-06-10T12:28:35;27.60;56.80
3055;DHT22;1537;52.018;8.542;2023-06-10T12:32:01;27.70;57.80
3055;DHT22;1537;52.018;8.542;2023-06-10T12:35:28;27.60;58.30
3055;DHT22;1537;52.018;8.542;2023-06-10T12:38:52;27.60;58.40
3055;DHT22;1537;52.018;8.542;2023-06-10T12:42:15;27.50;58.90
3055;DHT22;1537;52.018;8.542;2023-06-10T12:45:40;27.40;59.00
3055;DHT22;1537;52.018;8.542;2023-06-10T12:49:07;27.40;59.30
3055;DHT22;1537;52.018;8.542;2023-06-10T12:52:33;27.20;59.70
3055;DHT22;1537;52.018;8.542;2023-06-10T12:55:56;27.40;59.50
3055;DHT22;1537;52.018;8.542;2023-06-10T12:59:21;27.40;59.50
3055;DHT22;1537;52.018;8.542;2023-06-10T13:02:46;27.20;59.40
3055;DHT22;1537;52.018;8.542;2023-06-10T13:06:11;27.30;59.30
3055;DHT22;1537;52.018;8.542;2023-06-10T13:09:37;27.40;59.50
3055;DHT22;1537;52.018;8.542;2023-06-10T13:13:01;27.60;59.40
3055;DHT22;1537;52.018;8.542;2023-06-10T13:16:28;27.60;58.50
3055;DHT22;1537;52.018;8.542;2023-06-10T13:19:53;27.60;58.50
3055;DHT22;1537;52.018;8.542;2023-06-10T13:23:17;27.70;57.40
3055;DHT22;1537;52.018;8.542;2023-06-10T13:26:42;27.60;57.30
3055;DHT22;1537;52.018;8.542;2023-06-10T13:30:07;27.50;57.60
3055;DHT22;1537;52.018;8.542;2023-06-10T13:33:32;27.60;57.20
3055;DHT22;1537;52.018;8.542;2023-06-10T13:36:58;27.60;56.80
3055;DHT22;1537;52.018;8.542;2023-06-10T13:40:22;27.80;56.00
3055;DHT22;1537;52.018;8.542;2023-06-10T13:43:51;27.90;56.10
3055;DHT22;1537;52.018;8.542;2023-06-10T13:47:16;27.70;56.60
3055;DHT22;1537;52.018;8.542;2023-06-10T13:50:40;27.80;57.00
3055;DHT22;1537;52.018;8.542;2023-06-10T13:54:08;27.80;57.40
3055;DHT22;1537;52.018;8.542;2023-06-10T13:57:32;27.90;56.70
3055;DHT22;1537;52.018;8.542;2023-06-10T14:00:57;28.00;57.60
3055;DHT22;1537;52.018;8.542;2023-06-10T14:04:22;28.20;58.00
3055;DHT22;1537;52.018;8.542;2023-06-10T14:07:49;28.40;55.40
3055;DHT22;1537;52.018;8.542;2023-06-10T14:11:51;28.50;55.40
3055;DHT22;1537;52.018;8.542;2023-06-10T14:15:15;28.40;56.10
3055;DHT22;1537;52.018;8.542;2023-06-10T14:18:40;28.40;56.40
3055;DHT22;1537;52.018;8.542;2023-06-10T14:22:04;28.30;56.60
3055;DHT22;1537;52.018;8.542;2023-06-10T14:25:29;28.20;56.30
3055;DHT22;1537;52.018;8.542;2023-06-10T14:28:53;28.20;56.70
3055;DHT22;1537;52.018;8.542;2023-06-10T14:32:17;28.40;56.80
3055;DHT22;1537;52.018;8.542;2023-06-10T14:35:42;28.50;57.00
3055;DHT22;1537;52.018;8.542;2023-06-10T14:39:06;28.50;57.40
3055;DHT22;1537;52.018;8.542;2023-06-10T14:42:29;28.50;57.00
3055;DHT22;1537;52.018;8.542;2023-06-10T14:45:54;28.60;57.50
3055;DHT22;1537;52.018;8.542;2023-06-10T14:49:18;28.30;57.70
3055;DHT22;1537;52.018;8.542;2023-06-10T14:52:43;28.10;57.90
3055;DHT22;1537;52.018;8.542;2023-06-10T14:56:07;28.10;58.10
3055;DHT22;1537;52.018;8.542;2023-06-10T14:59:30;28.10;58.30
3055;DHT22;1537;52.018;8.542;2023-06-10T15:02:54;28.10;58.70
3055;DHT22;1537;52.018;8.542;2023-06-10T15:06:20;27.80;58.60
3055;DHT22;1537;52.018;8.542;2023-06-10T15:09:46;27.90;58.70
3055;DHT22;1537;52.018;8.542;2023-06-10T15:13:10;28.00;59.20
3055;DHT22;1537;52.018;8.542;2023-06-10T15:16:33;28.00;59.70
3055;DHT22;1537;52.018;8.542;2023-06-10T15:19:57;27.80;59.30
3055;DHT22;1537;52.018;8.542;2023-06-10T15:23:21;28.00;59.60
3055;DHT22;1537;52.018;8.542;2023-06-10T15:26:46;28.00;59.10
3055;DHT22;1537;52.018;8.542;2023-06-10T15:30:10;28.00;59.10
3055;DHT22;1537;52.018;8.542;2023-06-10T15:33:34;28.10;58.90
3055;DHT22;1537;52.018;8.542;2023-06-10T15:36:57;28.10;58.60
3055;DHT22;1537;52.018;8.542;2023-06-10T15:40:21;28.20;57.00
3055;DHT22;1537;52.018;8.542;2023-06-10T15:43:46;28.10;57.70
3055;DHT22;1537;52.018;8.542;2023-06-10T15:47:10;28.20;57.60
3055;DHT22;1537;52.018;8.542;2023-06-10T15:50:34;28.20;57.90
3055;DHT22;1537;52.018;8.542;2023-06-10T15:53:58;28.10;58.80
3055;DHT22;1537;52.018;8.542;2023-06-10T15:57:24;28.10;59.20
3055;DHT22;1537;52.018;8.542;2023-06-10T16:00:50;28.20;58.90
3055;DHT22;1537;52.018;8.542;2023-06-10T16:04:13;28.20;58.00
3055;DHT22;1537;52.018;8.542;2023-06-10T16:07:37;28.20;57.70
3055;DHT22;1537;52.018;8.542;2023-06-10T16:11:03;28.30;57.50
3055;DHT22;1537;52.018;8.542;2023-06-10T16:14:27;27.90;58.50
3055;DHT22;1537;52.018;8.542;2023-06-10T16:17:52;27.90;58.00
3055;DHT22;1537;52.018;8.542;2023-06-10T16:21:19;28.10;58.30
3055;DHT22;1537;52.018;8.542;2023-06-10T16:24:46;28.40;58.50
3055;DHT22;1537;52.018;8.542;2023-06-10T16:28:10;28.40;58.50
3055;DHT22;1537;52.018;8.542;2023-06-10T16:31:33;28.20;58.60
3055;DHT22;1537;52.018;8.542;2023-06-10T16:35:01;28.20;58.20
3055;DHT22;1537;52.018;8.542;2023-06-10T16:38:25;28.20;58.50
3055;DHT22;1537;52.018;8.542;2023-06-10T16:41:49;28.20;58.40
3055;DHT22;1537;52.018;8.542;2023-06-10T16:45:12;28.10;58.30
3055;DHT22;1537;52.018;8.542;2023-06-10T16:48:36;28.00;58.50
3055;DHT22;1537;52.018;8.542;2023-06-10T16:52:01;28.00;58.40
3055;DHT22;1537;52.018;8.542;2023-06-10T16:55:25;28.00;58.80
3055;DHT22;1537;52.018;8.542;2023-06-10T16:58:49;27.90;58.60
3055;DHT22;1537;52.018;8.542;2023-06-10T17:02:19;27.90;58.70
3055;DHT22;1537;52.018;8.542;2023-06-10T17:05:51;27.90;58.50
3055;DHT22;1537;52.018;8.542;2023-06-10T17:09:16;27.80;58.60
3055;DHT22;1537;52.018;8.542;2023-06-10T17:12:40;27.90;58.90
3055;DHT22;1537;52.018;8.542;2023-06-10T17:16:04;27.90;59.40
3055;DHT22;1537;52.018;8.542;2023-06-10T17:19:34;27.70;58.80
3055;DHT22;1537;52.018;8.542;2023-06-10T17:22:59;27.60;58.50
3055;DHT22;1537;52.018;8.542;2023-06-10T17:26:28;27.70;58.60
3055;DHT22;1537;52.018;8.542;2023-06-10T17:29:52;27.70;58.90
3055;DHT22;1537;52.018;8.542;2023-06-10T17:33:17;27.60;59.20
3055;DHT22;1537;52.018;8.542;2023-06-10T17:36:46;27.50;59.60
3055;DHT22;1537;52.018;8.542;2023-06-10T17:40:11;27.50;59.90
3055;DHT22;1537;52.018;8.542;2023-06-10T17:43:41;27.50;60.00
3055;DHT22;1537;52.018;8.542;2023-06-10T17:47:07;27.40;60.20
3055;DHT22;1537;52.018;8.542;2023-06-10T17:50:39;27.40;60.30
3055;DHT22;1537;52.018;8.542;2023-06-10T17:54:02;27.30;60.80
3055;DHT22;1537;52.018;8.542;2023-06-10T17:57:30;27.00;61.50
3055;DHT22;1537;52.018;8.542;2023-06-10T18:00:58;27.10;61.90
3055;DHT22;1537;52.018;8.542;2023-06-10T18:04:23;27.10;62.10
3055;DHT22;1537;52.018;8.542;2023-06-10T18:07:51;27.00;62.10
3055;DHT22;1537;52.018;8.542;2023-06-10T18:11:21;27.00;62.50
3055;DHT22;1537;52.018;8.542;2023-06-10T18:14:45;27.00;62.80
3055;DHT22;1537;52.018;8.542;2023-06-10T18:18:13;26.90;63.10
3055;DHT22;1537;52.018;8.542;2023-06-10T18:21:39;27.00;63.20
3055;DHT22;1537;52.018;8.542;2023-06-10T18:25:07;26.90;63.30
3055;DHT22;1537;52.018;8.542;2023-06-10T18:28:31;26.70;63.70
3055;DHT22;1537;52.018;8.542;2023-06-10T18:31:57;26.60;63.80
3055;DHT22;1537;52.018;8.542;2023-06-10T18:35:24;26.60;64.10
3055;DHT22;1537;52.018;8.542;2023-06-10T18:38:50;26.60;64.50
3055;DHT22;1537;52.018;8.542;2023-06-10T18:42:15;26.50;64.70
3055;DHT22;1537;52.018;8.542;2023-06-10T18:45:40;26.40;64.90
3055;DHT22;1537;52.018;8.542;2023-06-10T18:49:05;26.40;65.40
3055;DHT22;1537;52.018;8.542;2023-06-10T18:52:37;26.40;65.70
3055;DHT22;1537;52.018;8.542;2023-06-10T18:56:03;26.40;66.00
3055;DHT22;1537;52.018;8.542;2023-06-10T18:59:27;26.40;66.20
3055;DHT22;1537;52.018;8.542;2023-06-10T19:02:53;26.30;66.60
3055;DHT22;1537;52.018;8.542;2023-06-10T19:06:21;26.20;67.10
3055;DHT22;1537;52.018;8.542;2023-06-10T19:09:47;25.90;65.90
3055;DHT22;1537;52.018;8.542;2023-06-10T19:13:16;25.60;64.30
3055;DHT22;1537;52.018;8.542;2023-06-10T19:16:40;25.30;63.80
3055;DHT22;1537;52.018;8.542;2023-06-10T19:20:06;25.10;62.70
3055;DHT22;1537;52.018;8.542;2023-06-10T19:23:31;24.90;62.80
3055;DHT22;1537;52.018;8.542;2023-06-10T19:27:05;24.90;62.70
3055;DHT22;1537;52.018;8.542;2023-06-10T19:30:33;24.70;62.20
3055;DHT22;1537;52.018;8.542;2023-06-10T19:33:58;24.60;62.40
3055;DHT22;1537;52.018;8.542;2023-06-10T19:37:23;24.50;62.70
3055;DHT22;1537;52.018;8.542;2023-06-10T19:40:48;24.30;63.00
3055;DHT22;1537;52.018;8.542;2023-06-10T19:44:14;24.30;63.20
3055;DHT22;1537;52.018;8.542;2023-06-10T19:47:41;24.20;63.30
3055;DHT22;1537;52.018;8.542;2023-06-10T19:51:08;24.10;63.70
3055;DHT22;1537;52.018;8.542;2023-06-10T19:54:34;24.10;64.10
3055;DHT22;1537;52.018;8.542;2023-06-10T19:58:01;24.10;64.40
3055;DHT22;1537;52.018;8.542;2023-06-10T20:01:26;24.00;64.80
3055;DHT22;1537;52.018;8.542;2023-06-10T20:04:53;24.00;65.10
3055;DHT22;1537;52.018;8.542;2023-06-10T20:08:19;23.90;65.40
3055;DHT22;1537;52.018;8.542;2023-06-10T20:11:44;23.80;65.80
3055;DHT22;1537;52.018;8.542;2023-06-10T20:15:12;23.80;66.20
3055;DHT22;1537;52.018;8.542;2023-06-10T20:18:39;23.70;66.50
3055;DHT22;1537;52.018;8.542;2023-06-10T20:22:04;23.70;67.00
3055;DHT22;1537;52.018;8.542;2023-06-10T20:25:28;23.50;67.30
3055;DHT22;1537;52.018;8.542;2023-06-10T20:28:53;23.50;67.70
3055;DHT22;1537;52.018;8.542;2023-06-10T20:32:17;23.50;67.80
3055;DHT22;1537;52.018;8.542;2023-06-10T20:35:43;23.50;68.00
3055;DHT22;1537;52.018;8.542;2023-06-10T20:39:11;23.40;68.50
3055;DHT22;1537;52.018;8.542;2023-06-10T20:42:36;23.30;68.90
3055;DHT22;1537;52.018;8.542;2023-06-10T20:46:02;23.20;69.30
3055;DHT22;1537;52.018;8.542;2023-06-10T20:49:28;23.20;69.80
3055;DHT22;1537;52.018;8.542;2023-06-10T20:52:53;23.00;70.60
3055;DHT22;1537;52.018;8.542;2023-06-10T20:56:18;22.90;71.20
3055;DHT22;1537;52.018;8.542;2023-06-10T20:59:42;22.70;71.50
3055;DHT22;1537;52.018;8.542;2023-06-10T21:03:07;22.70;72.00
3055;DHT22;1537;52.018;8.542;2023-06-10T21:06:31;22.60;72.40
3055;DHT22;1537;52.018;8.542;2023-06-10T21:09:56;22.60;72.70
3055;DHT22;1537;52.018;8.542;2023-06-10T21:13:22;22.60;72.80
3055;DHT22;1537;52.018;8.542;2023-06-10T21:16:45;22.60;73.30
3055;DHT22;1537;52.018;8.542;2023-06-10T21:20:10;22.50;73.60
3055;DHT22;1537;52.018;8.542;2023-06-10T21:23:35;22.40;73.80
3055;DHT22;1537;52.018;8.542;2023-06-10T21:27:04;22.40;74.00
3055;DHT22;1537;52.018;8.542;2023-06-10T21:30:32;22.30;74.30
3055;DHT22;1537;52.018;8.542;2023-06-10T21:33:58;22.30;74.70
3055;DHT22;1537;52.018;8.542;2023-06-10T21:37:25;22.20;75.80
3055;DHT22;1537;52.018;8.542;2023-06-10T21:40:50;22.20;75.40
3055;DHT22;1537;52.018;8.542;2023-06-10T21:44:18;22.10;76.10
3055;DHT22;1537;52.018;8.542;2023-06-10T21:47:45;22.00;76.90
3055;DHT22;1537;52.018;8.542;2023-06-10T21:51:09;22.10;76.60
3055;DHT22;1537;52.018;8.542;2023-06-10T21:54:35;22.00;77.00
3055;DHT22;1537;52.018;8.542;2023-06-10T21:58:02;21.90;77.10
3055;DHT22;1537;52.018;8.542;2023-06-10T22:01:32;21.70;77.70
3055;DHT22;1537;52.018;8.542;2023-06-10T22:04:59;21.70;78.10
3055;DHT22;1537;52.018;8.542;2023-06-10T22:08:24;21.60;78.50
3055;DHT22;1537;52.018;8.542;2023-06-10T22:11:48;21.60;78.80
3055;DHT22;1537;52.018;8.542;2023-06-10T22:15:20;21.50;80.10
3055;DHT22;1537;52.018;8.542;2023-06-10T22:18:45;21.40;79.90
3055;DHT22;1537;52.018;8.542;2023-06-10T22:22:12;21.30;80.20
3055;DHT22;1537;52.018;8.542;2023-06-10T22:25:39;21.20;80.90